createdAt,value
2022-08-20T00:01:16.829Z,98580.60
2022-08-20T00:04:14.567Z,98579.00
2022-08-20T00:07:12.033Z,98581.20
2022-08-20T00:10:09.565Z,98580.60
2022-08-20T00:13:07.869Z,98574.60
2022-08-20T00:16:05.341Z,98567.20
2022-08-20T00:19:02.805Z,98568.80
2022-08-20T00:22:00.273Z,98575.20
2022-08-20T00:24:57.759Z,98571.00
2022-08-20T00:27:55.409Z,98569.40
2022-08-20T00:30:53.034Z,98568.20
2022-08-20T00:33:50.553Z,98568.00
2022-08-20T00:36:48.176Z,98559.40
2022-08-20T00:39:45.709Z,98555.00
2022-08-20T00:42:43.235Z,98546.80
2022-08-20T00:45:42.558Z,98546.20
2022-08-20T00:48:40.044Z,98546.60
2022-08-20T00:51:38.431Z,98544.00
2022-08-20T00:54:35.907Z,98550.00
2022-08-20T00:57:54.835Z,98554.20
2022-08-20T01:00:52.115Z,98556.00
2022-08-20T01:03:49.595Z,98548.40
2022-08-20T01:06:47.948Z,98543.60
2022-08-20T01:09:58.006Z,98538.80
2022-08-20T01:12:59.221Z,98532.80
2022-08-20T01:15:57.310Z,98527.20
2022-08-20T01:18:54.799Z,98502.80
2022-08-20T01:21:52.306Z,98499.20
2022-08-20T01:24:50.511Z,98494.80
2022-08-20T01:27:48.000Z,98492.40
2022-08-20T01:30:52.863Z,98488.40
2022-08-20T01:33:50.360Z,98482.60
2022-08-20T01:36:48.238Z,98480.40
2022-08-20T01:39:46.123Z,98480.00
2022-08-20T01:42:58.675Z,98488.00
2022-08-20T01:45:57.270Z,98496.00
2022-08-20T01:48:54.736Z,98485.20
2022-08-20T01:51:52.248Z,98478.80
2022-08-20T01:54:49.721Z,98476.60
2022-08-20T01:57:48.663Z,98479.00
2022-08-20T02:00:46.158Z,98476.00
2022-08-20T02:03:44.905Z,98475.20
2022-08-20T02:06:42.472Z,98477.80
2022-08-20T02:09:54.436Z,98467.20
2022-08-20T02:12:53.038Z,98461.40
2022-08-20T02:15:50.911Z,98463.80
2022-08-20T02:18:48.378Z,98466.20
2022-08-20T02:21:45.858Z,98465.00
2022-08-20T02:24:43.327Z,98464.00
2022-08-20T02:27:40.803Z,98461.40
2022-08-20T02:30:38.311Z,98459.40
2022-08-20T02:33:35.789Z,98456.40
2022-08-20T02:36:37.446Z,98454.80
2022-08-20T02:39:34.936Z,98454.00
2022-08-20T02:42:32.487Z,98462.40
2022-08-20T02:45:29.953Z,98465.60
2022-08-20T02:48:27.429Z,98461.00
2022-08-20T02:51:30.350Z,98453.00
2022-08-20T02:54:29.411Z,98455.00
2022-08-20T02:57:26.921Z,98458.60
2022-08-20T03:00:24.415Z,98456.20
2022-08-20T03:03:22.931Z,98451.60
2022-08-20T03:06:22.214Z,98453.40
2022-08-20T03:09:19.679Z,98456.60
2022-08-20T03:12:17.153Z,98454.40
2022-08-20T03:15:17.509Z,98452.40
2022-08-20T03:18:15.451Z,98452.60
2022-08-20T03:21:14.672Z,98449.60
2022-08-20T03:24:12.512Z,98453.20
2022-08-20T03:27:10.017Z,98460.20
2022-08-20T03:30:09.524Z,98457.40
2022-08-20T03:33:07.016Z,98457.00
2022-08-20T03:36:04.500Z,98459.80
2022-08-20T03:39:02.128Z,98456.00
2022-08-20T03:41:59.596Z,98459.00
2022-08-20T03:44:58.949Z,98463.40
2022-08-20T03:47:57.041Z,98463.00
2022-08-20T03:50:55.928Z,98472.60
2022-08-20T03:53:53.423Z,98473.20
2022-08-20T03:56:50.920Z,98466.20
2022-08-20T03:59:49.874Z,98477.20
2022-08-20T04:02:57.381Z,98473.20
2022-08-20T04:05:55.097Z,98475.20
2022-08-20T04:08:53.977Z,98473.60
2022-08-20T04:11:51.548Z,98472.80
2022-08-20T04:14:49.074Z,98469.80
2022-08-20T04:17:47.137Z,98470.40
2022-08-20T04:20:44.834Z,98472.60
2022-08-20T04:23:42.365Z,98473.20
2022-08-20T04:26:39.881Z,98481.20
2022-08-20T04:29:37.809Z,98492.20
2022-08-20T04:32:37.149Z,98495.20
2022-08-20T04:35:36.029Z,98496.40
2022-08-20T04:38:47.777Z,98496.00
2022-08-20T04:41:48.965Z,98491.80
2022-08-20T04:44:46.456Z,98491.80
2022-08-20T04:47:43.964Z,98490.40
2022-08-20T04:50:41.483Z,98492.20
2022-08-20T04:53:39.527Z,98484.20
2022-08-20T04:56:39.841Z,98486.20
2022-08-20T04:59:37.543Z,98490.60
2022-08-20T05:02:36.028Z,98489.20
2022-08-20T05:05:35.316Z,98497.60
2022-08-20T05:08:33.383Z,98501.00
2022-08-20T05:11:35.843Z,98510.80
2022-08-20T05:14:34.441Z,98512.80
2022-08-20T05:17:31.949Z,98514.20
2022-08-20T05:20:29.838Z,98523.60
2022-08-20T05:23:27.321Z,98526.60
2022-08-20T05:26:26.745Z,98521.80
2022-08-20T05:29:24.798Z,98514.60
2022-08-20T05:32:22.319Z,98508.20
2022-08-20T05:35:19.851Z,98505.40
2022-08-20T05:38:18.240Z,98499.20
2022-08-20T05:41:27.549Z,98494.60
2022-08-20T05:44:27.303Z,98504.60
2022-08-20T05:47:29.238Z,98519.20
2022-08-20T05:50:33.347Z,98522.60
2022-08-20T05:53:32.476Z,98524.60
2022-08-20T05:56:34.805Z,98515.80
2022-08-20T05:59:35.213Z,98519.80
2022-08-20T06:02:51.173Z,98522.40
2022-08-20T06:05:50.820Z,98537.80
2022-08-20T06:08:52.313Z,98534.00
2022-08-20T06:11:49.914Z,98537.40
2022-08-20T06:14:47.660Z,98541.80
2022-08-20T06:17:45.146Z,98549.20
2022-08-20T06:20:55.871Z,98545.80
2022-08-20T06:23:57.499Z,98539.00
2022-08-20T06:27:00.102Z,98542.20
2022-08-20T06:29:57.583Z,98546.40
2022-08-20T06:32:55.097Z,98554.00
2022-08-20T06:35:52.578Z,98558.20
2022-08-20T06:38:50.157Z,98558.80
2022-08-20T06:41:47.805Z,98569.60
2022-08-20T06:44:50.167Z,98567.80
2022-08-20T06:47:47.718Z,98563.40
2022-08-20T06:50:47.405Z,98558.80
2022-08-20T06:53:45.667Z,98562.60
2022-08-20T06:56:44.308Z,98572.40
2022-08-20T06:59:42.068Z,98572.40
2022-08-20T07:02:39.553Z,98571.80
2022-08-20T07:05:37.031Z,98575.80
2022-08-20T07:08:34.509Z,98575.20
2022-08-20T07:11:31.971Z,98573.40
2022-08-20T07:14:29.447Z,98579.80
2022-08-20T07:17:26.981Z,98578.60
2022-08-20T07:20:24.491Z,98582.40
2022-08-20T07:23:22.053Z,98576.40
2022-08-20T07:26:19.562Z,98577.00
2022-08-20T07:29:17.056Z,98581.60
2022-08-20T07:32:39.518Z,98583.20
2022-08-20T07:35:37.541Z,98580.00
2022-08-20T07:38:36.363Z,98579.20
2022-08-20T07:41:33.848Z,98583.40
2022-08-20T07:44:31.470Z,98577.20
2022-08-20T07:47:28.961Z,98588.20
2022-08-20T07:50:26.436Z,98587.40
2022-08-20T07:53:23.922Z,98578.40
2022-08-20T07:56:21.491Z,98584.80
2022-08-20T07:59:20.327Z,98583.60
2022-08-20T08:02:17.795Z,98594.80
2022-08-20T08:05:15.347Z,98585.60
2022-08-20T08:08:12.845Z,98587.00
2022-08-20T08:11:10.355Z,98587.40
2022-08-20T08:14:09.674Z,98592.60
2022-08-20T08:17:07.300Z,98583.40
2022-08-20T08:20:04.793Z,98602.40
2022-08-20T08:23:02.254Z,98592.60
2022-08-20T08:26:00.385Z,98599.80
2022-08-20T08:28:58.530Z,98602.20
2022-08-20T08:31:56.134Z,98609.40
2022-08-20T08:34:53.628Z,98604.20
2022-08-20T08:37:51.116Z,98613.80
2022-08-20T08:40:52.206Z,98619.40
2022-08-20T08:43:57.427Z,98601.40
2022-08-20T08:46:56.656Z,98606.80
2022-08-20T08:49:54.140Z,98608.40
2022-08-20T08:52:51.607Z,98604.40
2022-08-20T08:55:49.126Z,98614.40
2022-08-20T08:58:46.623Z,98609.00
2022-08-20T09:01:56.328Z,98597.60
2022-08-20T09:04:56.161Z,98597.80
2022-08-20T09:07:54.410Z,98590.20
2022-08-20T09:10:51.955Z,98598.40
2022-08-20T09:13:49.444Z,98606.60
2022-08-20T09:16:52.866Z,98600.80
2022-08-20T09:19:52.493Z,98605.80
2022-08-20T09:22:50.191Z,98607.40
2022-08-20T09:25:49.906Z,98610.60
2022-08-20T09:28:51.658Z,98608.20
2022-08-20T09:31:49.862Z,98607.40
2022-08-20T09:34:47.351Z,98606.60
2022-08-20T09:37:44.834Z,98617.80
2022-08-20T09:40:43.493Z,98619.40
2022-08-20T09:43:41.086Z,98632.00
2022-08-20T09:46:38.588Z,98622.80
2022-08-20T09:49:37.441Z,98629.60
2022-08-20T09:52:38.868Z,98641.20
2022-08-20T09:55:38.130Z,98629.40
2022-08-20T09:58:35.666Z,98629.40
2022-08-20T10:01:33.441Z,98625.20
2022-08-20T10:04:30.991Z,98623.00
2022-08-20T10:07:28.485Z,98613.80
2022-08-20T10:10:25.949Z,98614.40
2022-08-20T10:13:23.418Z,98609.00
2022-08-20T10:16:20.899Z,98607.60
2022-08-20T10:19:18.376Z,98602.00
2022-08-20T10:22:15.852Z,98606.40
2022-08-20T10:25:13.616Z,98613.40
2022-08-20T10:28:11.192Z,98610.60
2022-08-20T10:31:08.674Z,98609.20
2022-08-20T10:34:06.418Z,98613.20
2022-08-20T10:37:03.903Z,98605.60
2022-08-20T10:40:01.499Z,98604.80
2022-08-20T10:42:59.111Z,98607.20
2022-08-20T10:45:56.603Z,98600.80
2022-08-20T10:48:54.081Z,98608.00
2022-08-20T10:51:51.555Z,98609.20
2022-08-20T10:54:49.349Z,98621.20
2022-08-20T10:57:46.886Z,98623.60
2022-08-20T11:00:45.836Z,98620.60
2022-08-20T11:03:43.529Z,98617.20
2022-08-20T11:06:41.032Z,98612.80
2022-08-20T11:09:38.612Z,98608.00
2022-08-20T11:12:36.091Z,98617.60
2022-08-20T11:15:33.565Z,98623.20
2022-08-20T11:18:31.045Z,98609.20
2022-08-20T11:21:28.509Z,98603.60
2022-08-20T11:24:25.986Z,98600.60
2022-08-20T11:27:23.468Z,98600.60
2022-08-20T11:30:20.922Z,98607.40
2022-08-20T11:33:19.334Z,98615.20
2022-08-20T11:36:20.758Z,98624.80
2022-08-20T11:39:18.957Z,98628.60
2022-08-20T11:42:16.662Z,98627.80
2022-08-20T11:45:14.122Z,98624.80
2022-08-20T11:48:11.615Z,98626.00
2022-08-20T11:51:09.078Z,98628.20
2022-08-20T11:54:06.559Z,98632.00
2022-08-20T11:57:05.625Z,98641.80
2022-08-20T12:00:03.143Z,98639.20
2022-08-20T12:03:00.810Z,98646.60
2022-08-20T12:05:58.497Z,98645.40
2022-08-20T12:08:55.986Z,98652.60
2022-08-20T12:11:53.941Z,98650.80
2022-08-20T12:14:51.450Z,98647.80
2022-08-20T12:17:48.965Z,98652.80
2022-08-20T12:20:46.417Z,98650.00
2022-08-20T12:23:48.418Z,98653.20
2022-08-20T12:26:46.267Z,98654.80
2022-08-20T12:29:43.747Z,98656.20
2022-08-20T12:32:41.227Z,98655.80
2022-08-20T12:35:39.026Z,98654.60
2022-08-20T12:38:36.536Z,98655.40
2022-08-20T12:41:33.996Z,98653.40
2022-08-20T12:44:31.479Z,98650.80
2022-08-20T12:47:28.946Z,98646.60
2022-08-20T12:50:31.261Z,98647.80
2022-08-20T12:53:29.160Z,98645.20
2022-08-20T12:56:26.643Z,98637.40
2022-08-20T12:59:26.070Z,98636.80
2022-08-20T13:02:23.736Z,98633.60
2022-08-20T13:05:21.217Z,98624.60
2022-08-20T13:08:19.635Z,98624.40
2022-08-20T13:11:17.240Z,98626.40
2022-08-20T13:14:14.710Z,98623.40
2022-08-20T13:17:12.197Z,98622.20
2022-08-20T13:20:10.242Z,98621.00
2022-08-20T13:23:07.722Z,98613.60
2022-08-20T13:26:05.945Z,98614.80
2022-08-20T13:29:03.417Z,98613.60
2022-08-20T13:32:00.865Z,98614.40
2022-08-20T13:34:58.329Z,98609.60
2022-08-20T13:37:55.811Z,98606.00
2022-08-20T13:40:53.302Z,98597.40
2022-08-20T13:43:50.789Z,98595.60
2022-08-20T13:46:48.738Z,98600.00
2022-08-20T13:49:46.235Z,98597.40
2022-08-20T13:52:43.699Z,98591.00
2022-08-20T13:55:41.780Z,98597.00
2022-08-20T13:58:39.239Z,98596.00
2022-08-20T14:01:36.772Z,98597.80
2022-08-20T14:04:34.311Z,98597.40
2022-08-20T14:07:32.918Z,98598.20
2022-08-20T14:10:32.807Z,98607.40
2022-08-20T14:13:30.272Z,98606.20
2022-08-20T14:16:29.000Z,98599.00
2022-08-20T14:19:27.897Z,98594.00
2022-08-20T14:22:25.391Z,98593.40
2022-08-20T14:25:22.889Z,98604.40
2022-08-20T14:28:20.358Z,98601.80
2022-08-20T14:31:17.846Z,98607.20
2022-08-20T14:34:15.313Z,98608.60
2022-08-20T14:37:13.065Z,98614.80
2022-08-20T14:40:10.587Z,98613.60
2022-08-20T14:43:08.082Z,98616.20
2022-08-20T14:46:05.563Z,98612.60
2022-08-20T14:49:03.048Z,98616.00
2022-08-20T14:52:00.534Z,98619.20
2022-08-20T14:54:58.011Z,98614.60
2022-08-20T14:57:55.486Z,98615.80
2022-08-20T15:00:53.069Z,98612.20
2022-08-20T15:03:50.578Z,98611.60
2022-08-20T15:06:48.654Z,98611.60
2022-08-20T15:09:46.538Z,98616.80
2022-08-20T15:12:44.014Z,98612.80
2022-08-20T15:15:41.640Z,98615.00
2022-08-20T15:18:39.130Z,98625.60
2022-08-20T15:21:44.957Z,98630.20
2022-08-20T15:24:43.410Z,98626.60
2022-08-20T15:27:40.900Z,98625.20
2022-08-20T15:30:38.365Z,98624.80
2022-08-20T15:33:35.872Z,98621.80
2022-08-20T15:36:33.356Z,98625.20
2022-08-20T15:39:30.827Z,98620.40
2022-08-20T15:42:28.309Z,98632.80
2022-08-20T15:45:25.800Z,98629.20
2022-08-20T15:48:23.314Z,98628.60
2022-08-20T15:51:20.816Z,98628.60
2022-08-20T15:54:18.270Z,98626.40
2022-08-20T15:57:17.508Z,98635.40
2022-08-20T16:00:14.994Z,98636.60
2022-08-20T16:03:12.473Z,98626.80
2022-08-20T16:06:13.648Z,98623.20
2022-08-20T16:09:11.497Z,98625.60
2022-08-20T16:12:08.979Z,98620.00
2022-08-20T16:15:06.464Z,98612.80
2022-08-20T16:18:03.938Z,98621.80
2022-08-20T16:21:03.771Z,98619.60
2022-08-20T16:24:01.578Z,98625.40
2022-08-20T16:26:59.772Z,98623.80
2022-08-20T16:29:57.279Z,98624.80
2022-08-20T16:32:54.802Z,98630.00
2022-08-20T16:35:52.283Z,98628.40
2022-08-20T16:38:49.771Z,98620.60
2022-08-20T16:41:47.314Z,98624.40
2022-08-20T16:44:44.796Z,98632.60
2022-08-20T16:47:42.324Z,98627.00
2022-08-20T16:50:40.388Z,98628.80
2022-08-20T16:53:37.872Z,98632.20
2022-08-20T16:56:35.338Z,98629.80
2022-08-20T16:59:33.089Z,98628.60
2022-08-20T17:02:30.550Z,98630.60
2022-08-20T17:05:28.046Z,98631.20
2022-08-20T17:08:25.520Z,98632.40
2022-08-20T17:11:24.266Z,98629.40
2022-08-20T17:14:21.742Z,98635.80
2022-08-20T17:17:19.205Z,98632.60
2022-08-20T17:20:20.260Z,98636.00
2022-08-20T17:23:18.582Z,98640.80
2022-08-20T17:26:16.055Z,98639.00
2022-08-20T17:29:14.039Z,98638.20
2022-08-20T17:32:11.816Z,98637.80
2022-08-20T17:35:09.295Z,98639.40
2022-08-20T17:38:06.807Z,98638.00
2022-08-20T17:41:04.832Z,98647.40
2022-08-20T17:44:02.331Z,98643.00
2022-08-20T17:46:59.818Z,98645.60
2022-08-20T17:50:02.195Z,98651.60
2022-08-20T17:53:00.491Z,98651.60
2022-08-20T17:55:58.535Z,98658.60
2022-08-20T17:59:02.822Z,98655.20
2022-08-20T18:02:01.184Z,98656.00
2022-08-20T18:04:58.722Z,98655.60
2022-08-20T18:07:56.194Z,98655.20
2022-08-20T18:10:53.682Z,98649.40
2022-08-20T18:13:51.143Z,98648.80
2022-08-20T18:16:48.677Z,98647.60
2022-08-20T18:19:46.169Z,98658.20
2022-08-20T18:22:43.653Z,98662.20
2022-08-20T18:25:41.141Z,98674.00
2022-08-20T18:28:38.944Z,98679.40
2022-08-20T18:31:36.588Z,98680.60
2022-08-20T18:34:34.078Z,98675.80
2022-08-20T18:37:31.582Z,98677.20
2022-08-20T18:40:29.220Z,98679.20
2022-08-20T18:43:30.487Z,98687.00
2022-08-20T18:46:28.160Z,98689.60
2022-08-20T18:49:25.614Z,98692.60
2022-08-20T18:52:23.163Z,98687.60
2022-08-20T18:55:20.674Z,98691.80
2022-08-20T18:58:18.147Z,98691.80
2022-08-20T19:01:15.729Z,98697.20
2022-08-20T19:04:13.651Z,98699.60
2022-08-20T19:07:11.191Z,98697.80
2022-08-20T19:10:09.488Z,98704.00
2022-08-20T19:13:14.173Z,98712.40
2022-08-20T19:16:13.616Z,98713.80
2022-08-20T19:19:11.068Z,98712.00
2022-08-20T19:22:08.532Z,98721.00
2022-08-20T19:25:06.033Z,98711.40
2022-08-20T19:28:03.528Z,98717.40
2022-08-20T19:31:01.170Z,98715.80
2022-08-20T19:33:59.014Z,98717.20
2022-08-20T19:36:57.667Z,98721.60
2022-08-20T19:39:55.646Z,98718.40
2022-08-20T19:42:53.150Z,98717.80
2022-08-20T19:45:50.595Z,98727.60
2022-08-20T19:48:48.090Z,98720.40
2022-08-20T19:51:47.968Z,98723.60
2022-08-20T19:54:46.528Z,98726.00
2022-08-20T19:57:44.401Z,98718.20
2022-08-20T20:00:42.362Z,98718.80
2022-08-20T20:03:39.859Z,98718.60
2022-08-20T20:06:37.343Z,98718.40
2022-08-20T20:09:34.820Z,98717.00
2022-08-20T20:12:32.593Z,98717.20
2022-08-20T20:15:30.278Z,98717.00
2022-08-20T20:18:27.830Z,98718.80
2022-08-20T20:21:25.300Z,98726.40
2022-08-20T20:24:22.774Z,98731.00
2022-08-20T20:27:21.595Z,98727.00
2022-08-20T20:30:19.489Z,98730.20
2022-08-20T20:33:16.986Z,98736.40
2022-08-20T20:36:14.470Z,98730.60
2022-08-20T20:39:14.491Z,98727.40
2022-08-20T20:42:12.931Z,98724.80
2022-08-20T20:45:10.425Z,98718.80
2022-08-20T20:48:07.905Z,98715.20
2022-08-20T20:51:05.381Z,98711.60
2022-08-20T20:54:02.904Z,98717.80
2022-08-20T20:57:00.416Z,98715.00
2022-08-20T20:59:57.910Z,98715.20
2022-08-20T21:02:55.362Z,98721.20
2022-08-20T21:05:52.828Z,98727.40
2022-08-20T21:08:50.701Z,98731.80
2022-08-20T21:11:48.164Z,98731.00
2022-08-20T21:14:45.680Z,98735.00
2022-08-20T21:17:43.313Z,98738.60
2022-08-20T21:20:40.793Z,98741.60
2022-08-20T21:23:40.390Z,98743.40
2022-08-20T21:26:39.585Z,98735.60
2022-08-20T21:29:37.727Z,98734.80
2022-08-20T21:32:35.225Z,98731.00
2022-08-20T21:35:32.747Z,98726.60
2022-08-20T21:38:30.211Z,98723.20
2022-08-20T21:41:30.082Z,98724.80
2022-08-20T21:44:27.877Z,98725.40
2022-08-20T21:47:27.336Z,98723.80
2022-08-20T21:50:24.821Z,98718.40
2022-08-20T21:53:22.314Z,98710.20
2022-08-20T21:56:19.803Z,98696.40
2022-08-20T21:59:19.987Z,98697.40
2022-08-20T22:02:17.493Z,98693.00
2022-08-20T22:05:14.981Z,98694.00
2022-08-20T22:08:12.457Z,98684.40
2022-08-20T22:11:09.950Z,98682.00
2022-08-20T22:14:07.430Z,98681.80
2022-08-20T22:17:04.897Z,98686.00
2022-08-20T22:20:02.500Z,98678.40
2022-08-20T22:23:00.102Z,98679.00
2022-08-20T22:25:57.698Z,98681.00
2022-08-20T22:28:55.175Z,98678.20
2022-08-20T22:31:52.677Z,98675.60
2022-08-20T22:34:50.147Z,98674.80
2022-08-20T22:37:47.626Z,98672.80
2022-08-20T22:40:45.106Z,98671.40
2022-08-20T22:43:55.043Z,98676.40
2022-08-20T22:46:55.868Z,98672.40
2022-08-20T22:49:53.537Z,98673.40
2022-08-20T22:52:51.098Z,98670.00
2022-08-20T22:55:48.595Z,98668.00
2022-08-20T22:58:46.286Z,98663.40
2022-08-20T23:01:47.687Z,98659.40
2022-08-20T23:04:45.157Z,98655.00
2022-08-20T23:07:42.638Z,98645.40
2022-08-20T23:10:40.112Z,98646.00
2022-08-20T23:13:37.598Z,98635.60
2022-08-20T23:16:35.065Z,98628.00
2022-08-20T23:19:32.545Z,98630.00
2022-08-20T23:22:30.026Z,98624.00
2022-08-20T23:25:27.488Z,98623.60
2022-08-20T23:28:25.304Z,98623.80
2022-08-20T23:31:23.122Z,98628.00
2022-08-20T23:34:20.613Z,98631.20
2022-08-20T23:37:18.933Z,98633.80
2022-08-20T23:40:16.459Z,98627.00
2022-08-20T23:43:14.005Z,98621.60
2022-08-20T23:46:11.508Z,98627.60
2022-08-20T23:49:08.986Z,98630.00
2022-08-20T23:52:06.596Z,98629.40
2022-08-20T23:55:04.090Z,98628.80
2022-08-20T23:58:01.565Z,98630.20
